createdAt,value
2023-11-15T00:02:27.045Z,2.30
2023-11-15T00:04:56.953Z,2.40
2023-11-15T00:07:26.762Z,2.80
2023-11-15T00:09:56.630Z,1.90
2023-11-15T00:12:28.996Z,1.90
2023-11-15T00:14:59.893Z,2.30
2023-11-15T00:17:32.049Z,2.60
2023-11-15T00:20:05.098Z,2.60
2023-11-15T00:22:35.016Z,2.10
2023-11-15T00:25:06.557Z,1.80
2023-11-15T00:27:38.941Z,2.10
2023-11-15T00:30:13.738Z,2.10
2023-11-15T00:32:43.533Z,2.30
2023-11-15T00:35:13.642Z,3.00
2023-11-15T00:37:43.677Z,2.40
2023-11-15T00:40:16.565Z,2.80
2023-11-15T00:42:50.323Z,1.90
2023-11-15T00:45:25.323Z,2.70
2023-11-15T00:47:55.783Z,2.40
2023-11-15T00:50:25.810Z,2.00
2023-11-15T00:52:59.256Z,2.60
2023-11-15T00:55:29.256Z,2.10
2023-11-15T00:58:00.606Z,2.50
2023-11-15T01:00:39.752Z,2.10
2023-11-15T01:03:10.669Z,2.00
2023-11-15T01:05:40.608Z,2.70
2023-11-15T01:08:10.418Z,2.50
2023-11-15T01:10:40.474Z,2.60
2023-11-15T01:13:10.926Z,2.30
2023-11-15T01:15:43.324Z,2.50
2023-11-15T01:18:13.289Z,2.50
2023-11-15T01:20:44.623Z,2.80
2023-11-15T01:23:14.505Z,2.60
2023-11-15T01:25:44.448Z,2.00
2023-11-15T01:28:14.178Z,2.50
2023-11-15T01:30:43.951Z,2.10
2023-11-15T01:33:19.118Z,3.10
2023-11-15T01:35:51.708Z,2.10
2023-11-15T01:38:21.622Z,2.30
2023-11-15T01:40:51.450Z,2.50
2023-11-15T01:43:21.356Z,2.10
2023-11-15T01:45:52.374Z,2.20
2023-11-15T01:48:23.201Z,2.90
2023-11-15T01:50:53.540Z,2.10
2023-11-15T01:53:23.699Z,2.40
2023-11-15T01:55:56.365Z,2.40
2023-11-15T01:58:26.981Z,2.10
2023-11-15T02:00:59.169Z,2.40
2023-11-15T02:03:29.041Z,2.60
2023-11-15T02:06:02.069Z,2.60
2023-11-15T02:08:31.889Z,1.80
2023-11-15T02:11:01.763Z,2.20
2023-11-15T02:13:31.973Z,2.20
2023-11-15T02:16:02.300Z,3.10
2023-11-15T02:18:32.339Z,2.40
2023-11-15T02:21:02.187Z,2.40
2023-11-15T02:23:32.130Z,2.70
2023-11-15T02:26:01.922Z,2.60
2023-11-15T02:28:31.673Z,2.30
2023-11-15T02:31:03.744Z,3.60
2023-11-15T02:33:34.136Z,3.30
2023-11-15T02:36:04.550Z,2.70
2023-11-15T02:38:34.800Z,2.40
2023-11-15T02:41:07.281Z,2.30
2023-11-15T02:43:39.402Z,2.70
2023-11-15T02:46:12.346Z,3.80
2023-11-15T02:48:42.167Z,2.40
2023-11-15T02:51:12.169Z,2.50
2023-11-15T02:53:42.188Z,2.60
2023-11-15T02:56:12.202Z,2.50
2023-11-15T02:58:44.600Z,2.90
2023-11-15T03:01:17.550Z,3.90
2023-11-15T03:03:47.769Z,2.50
2023-11-15T03:06:17.545Z,2.30
2023-11-15T03:08:49.727Z,2.40
2023-11-15T03:11:19.588Z,3.70
2023-11-15T03:13:49.483Z,2.80
2023-11-15T03:16:23.814Z,3.70
2023-11-15T03:18:53.829Z,2.30
2023-11-15T03:21:23.552Z,2.50
2023-11-15T03:23:53.632Z,2.30
2023-11-15T03:26:23.453Z,3.10
2023-11-15T03:28:53.340Z,2.30
2023-11-15T03:31:23.072Z,2.70
2023-11-15T03:33:53.362Z,2.10
2023-11-15T03:36:25.793Z,2.10
2023-11-15T03:38:55.700Z,2.30
2023-11-15T03:41:25.624Z,3.10
2023-11-15T03:43:55.478Z,2.10
2023-11-15T03:46:25.670Z,2.80
2023-11-15T03:48:56.324Z,2.80
2023-11-15T03:51:26.109Z,2.40
2023-11-15T03:53:55.914Z,2.70
2023-11-15T03:56:26.295Z,2.30
2023-11-15T03:58:56.151Z,2.50
2023-11-15T04:01:26.641Z,3.00
2023-11-15T04:03:57.078Z,2.10
2023-11-15T04:06:29.566Z,2.70
2023-11-15T04:09:01.602Z,2.10
2023-11-15T04:11:37.899Z,2.10
2023-11-15T04:14:07.796Z,2.20
2023-11-15T04:16:37.633Z,2.00
2023-11-15T04:19:07.686Z,2.10
2023-11-15T04:21:37.719Z,2.30
2023-11-15T04:24:11.118Z,2.20
2023-11-15T04:26:41.965Z,2.40
2023-11-15T04:29:11.712Z,2.40
2023-11-15T04:31:41.930Z,2.40
2023-11-15T04:34:11.667Z,2.30
2023-11-15T04:36:41.523Z,2.40
2023-11-15T04:39:12.261Z,2.20
2023-11-15T04:41:42.216Z,2.40
2023-11-15T04:44:16.289Z,2.00
2023-11-15T04:46:46.126Z,2.30
2023-11-15T04:49:15.893Z,3.00
2023-11-15T04:51:45.679Z,2.70
2023-11-15T04:54:15.420Z,2.40
2023-11-15T04:56:45.292Z,3.20
2023-11-15T04:59:15.056Z,2.40
2023-11-15T05:01:47.236Z,2.50
2023-11-15T05:04:17.373Z,2.10
2023-11-15T05:06:48.083Z,2.80
2023-11-15T05:09:17.823Z,2.70
2023-11-15T05:11:47.573Z,2.10
2023-11-15T05:14:17.602Z,2.60
2023-11-15T05:16:47.310Z,2.80
2023-11-15T05:19:17.104Z,2.10
2023-11-15T05:21:46.801Z,2.30
2023-11-15T05:24:16.496Z,2.20
2023-11-15T05:26:46.522Z,1.60
2023-11-15T05:29:16.345Z,2.70
2023-11-15T05:31:46.076Z,2.80
2023-11-15T05:34:16.250Z,2.40
2023-11-15T05:36:46.054Z,2.70
2023-11-15T05:39:15.777Z,2.30
2023-11-15T05:41:47.958Z,2.20
2023-11-15T05:44:17.795Z,2.10
2023-11-15T05:46:49.839Z,1.70
2023-11-15T05:49:22.271Z,2.10
2023-11-15T05:51:52.035Z,2.50
2023-11-15T05:54:21.831Z,2.80
2023-11-15T05:56:51.664Z,2.30
2023-11-15T05:59:21.470Z,2.50
2023-11-15T06:01:53.100Z,2.20
2023-11-15T06:04:23.352Z,2.50
2023-11-15T06:06:53.468Z,2.50
2023-11-15T06:09:23.249Z,2.00
2023-11-15T06:11:53.130Z,1.80
2023-11-15T06:14:25.956Z,2.10
2023-11-15T06:16:55.703Z,2.60
2023-11-15T06:19:25.481Z,2.50
2023-11-15T06:21:55.317Z,2.60
2023-11-15T06:24:25.266Z,2.20
2023-11-15T06:26:55.093Z,2.50
2023-11-15T06:29:24.900Z,2.00
2023-11-15T06:31:56.195Z,3.00
2023-11-15T06:34:25.918Z,2.20
2023-11-15T06:36:56.626Z,2.10
2023-11-15T06:39:26.351Z,3.60
2023-11-15T06:41:56.100Z,2.20
2023-11-15T06:44:28.228Z,2.20
2023-11-15T06:47:00.066Z,2.60
2023-11-15T06:49:33.117Z,2.10
2023-11-15T06:52:03.061Z,3.70
2023-11-15T06:54:32.860Z,2.00
2023-11-15T06:57:04.384Z,2.20
2023-11-15T06:59:34.854Z,2.50
2023-11-15T07:02:05.186Z,2.70
2023-11-15T07:04:35.256Z,2.70
2023-11-15T07:07:06.124Z,3.30
2023-11-15T07:09:35.960Z,3.00
2023-11-15T07:12:07.023Z,1.90
2023-11-15T07:14:37.788Z,2.60
2023-11-15T07:17:08.807Z,2.80
2023-11-15T07:19:40.130Z,2.10
2023-11-15T07:22:10.388Z,2.10
2023-11-15T07:24:42.350Z,2.30
2023-11-15T07:27:13.054Z,2.20
2023-11-15T07:29:48.124Z,2.60
2023-11-15T07:32:18.359Z,2.80
2023-11-15T07:34:50.571Z,2.90
2023-11-15T07:37:20.358Z,2.40
2023-11-15T07:39:50.290Z,3.00
2023-11-15T07:42:20.733Z,2.00
2023-11-15T07:44:51.850Z,2.90
2023-11-15T07:47:21.697Z,2.90
2023-11-15T07:49:51.470Z,2.60
2023-11-15T07:52:24.383Z,2.60
2023-11-15T07:54:54.217Z,2.30
2023-11-15T07:57:27.052Z,3.60
2023-11-15T07:59:57.377Z,2.40
2023-11-15T08:02:27.608Z,2.30
2023-11-15T08:04:57.565Z,2.40
2023-11-15T08:07:29.671Z,1.80
2023-11-15T08:09:59.497Z,3.50
2023-11-15T08:12:36.628Z,2.30
2023-11-15T08:15:08.944Z,2.90
2023-11-15T08:17:38.772Z,2.30
2023-11-15T08:20:18.115Z,2.10
2023-11-15T08:22:48.048Z,2.40
2023-11-15T08:25:17.860Z,2.50
2023-11-15T08:27:49.911Z,2.10
2023-11-15T08:30:19.737Z,3.10
2023-11-15T08:32:50.193Z,2.70
2023-11-15T08:35:21.730Z,2.60
2023-11-15T08:37:54.232Z,2.70
2023-11-15T08:40:28.972Z,2.60
2023-11-15T08:42:59.999Z,2.60
2023-11-15T08:45:30.132Z,2.80
2023-11-15T08:48:05.558Z,1.90
2023-11-15T08:50:35.654Z,2.50
2023-11-15T08:53:08.023Z,2.10
2023-11-15T08:55:37.904Z,3.00
2023-11-15T08:58:08.458Z,2.20
2023-11-15T09:00:39.201Z,3.20
2023-11-15T09:03:09.887Z,1.80
2023-11-15T09:05:40.730Z,2.70
2023-11-15T09:08:11.462Z,2.70
2023-11-15T09:10:41.926Z,2.70
2023-11-15T09:13:15.013Z,2.60
2023-11-15T09:15:45.109Z,2.50
2023-11-15T09:18:21.288Z,2.50
2023-11-15T09:20:54.112Z,1.70
2023-11-15T09:23:28.969Z,2.50
2023-11-15T09:26:01.186Z,2.60
2023-11-15T09:28:32.400Z,2.70
2023-11-15T09:31:02.320Z,3.10
2023-11-15T09:33:32.148Z,2.70
2023-11-15T09:36:02.240Z,3.20
2023-11-15T09:38:33.443Z,2.20
2023-11-15T09:41:13.090Z,2.00
2023-11-15T09:43:52.502Z,3.10
2023-11-15T09:46:22.471Z,2.50
2023-11-15T09:48:59.956Z,2.30
2023-11-15T09:51:35.688Z,2.00
2023-11-15T09:54:16.274Z,2.00
2023-11-15T09:56:50.774Z,2.30
2023-11-15T09:59:21.407Z,2.10
2023-11-15T10:01:54.370Z,2.40
2023-11-15T10:04:27.830Z,2.80
2023-11-15T10:07:05.281Z,2.80
2023-11-15T10:09:41.225Z,2.30
2023-11-15T10:12:12.108Z,2.60
2023-11-15T10:14:54.256Z,2.10
2023-11-15T10:17:41.551Z,2.70
2023-11-15T10:20:23.787Z,2.30
2023-11-15T10:22:57.254Z,2.20
2023-11-15T10:25:27.302Z,2.00
2023-11-15T10:28:05.383Z,2.20
2023-11-15T10:30:35.632Z,2.60
2023-11-15T10:33:14.722Z,2.00
2023-11-15T10:35:48.839Z,2.30
2023-11-15T10:38:24.228Z,2.10
2023-11-15T10:40:56.080Z,2.40
2023-11-15T10:43:27.059Z,2.60
2023-11-15T10:46:01.151Z,1.90
2023-11-15T10:48:35.013Z,2.50
2023-11-15T10:51:15.057Z,2.00
2023-11-15T10:53:48.579Z,2.00
2023-11-15T10:56:23.683Z,2.50
2023-11-15T10:58:54.442Z,2.30
2023-11-15T11:01:26.143Z,2.40
2023-11-15T11:03:59.691Z,1.90
2023-11-15T11:06:40.529Z,1.40
2023-11-15T11:09:17.890Z,2.10
2023-11-15T11:11:59.171Z,1.90
2023-11-15T11:14:29.303Z,1.90
2023-11-15T11:17:00.417Z,2.30
2023-11-15T11:19:30.856Z,1.90
2023-11-15T11:22:09.931Z,2.50
2023-11-15T11:24:47.216Z,1.30
2023-11-15T11:27:38.130Z,1.70
2023-11-15T11:30:21.990Z,1.50
2023-11-15T11:33:11.428Z,2.00
2023-11-15T11:35:44.101Z,1.90
2023-11-15T11:38:43.633Z,2.00
2023-11-15T11:41:14.871Z,2.10
2023-11-15T11:43:44.788Z,1.30
2023-11-15T11:46:19.782Z,1.30
2023-11-15T11:49:01.208Z,1.80
2023-11-15T11:51:31.231Z,1.80
2023-11-15T11:54:04.934Z,2.00
2023-11-15T11:56:34.986Z,1.70
2023-11-15T11:59:13.865Z,1.60
2023-11-15T12:01:53.259Z,1.30
2023-11-15T12:04:24.784Z,1.90
2023-11-15T12:06:54.728Z,1.30
2023-11-15T12:09:25.923Z,1.60
2023-11-15T12:11:56.476Z,1.30
2023-11-15T12:14:28.000Z,2.40
2023-11-15T12:16:57.969Z,2.40
2023-11-15T12:19:40.618Z,1.90
2023-11-15T12:22:10.928Z,1.20
2023-11-15T12:24:44.343Z,1.30
2023-11-15T12:27:15.003Z,2.10
2023-11-15T12:29:46.985Z,2.20
2023-11-15T12:32:17.177Z,1.50
2023-11-15T12:34:48.132Z,1.40
2023-11-15T12:37:18.447Z,1.40
2023-11-15T12:39:48.591Z,1.70
2023-11-15T12:42:28.778Z,1.50
2023-11-15T12:44:59.926Z,1.20
2023-11-15T12:47:30.063Z,1.70
2023-11-15T12:50:04.724Z,1.40
2023-11-15T12:52:44.760Z,1.40
2023-11-15T12:55:34.451Z,1.20
2023-11-15T12:58:04.247Z,1.60
2023-11-15T13:00:34.526Z,1.60
2023-11-15T13:03:18.404Z,1.50
2023-11-15T13:05:52.035Z,1.30
2023-11-15T13:08:22.175Z,1.30
2023-11-15T13:10:52.550Z,1.60
2023-11-15T13:13:22.365Z,1.50
2023-11-15T13:15:54.745Z,1.30
2023-11-15T13:20:59.116Z,1.30
2023-11-15T13:23:30.367Z,1.80
2023-11-15T13:26:03.727Z,1.70
2023-11-15T13:28:36.553Z,1.70
2023-11-15T13:31:10.127Z,1.90
2023-11-15T13:33:40.859Z,1.70
2023-11-15T13:36:13.026Z,1.50
2023-11-15T13:38:43.189Z,2.00
2023-11-15T13:41:16.936Z,1.60
2023-11-15T13:43:48.836Z,1.50
2023-11-15T13:46:30.005Z,1.80
2023-11-15T13:49:04.979Z,1.30
2023-11-15T13:51:35.039Z,1.20
2023-11-15T13:54:05.135Z,1.80
2023-11-15T13:56:35.661Z,1.30
2023-11-15T13:59:07.594Z,1.60
2023-11-15T14:01:40.502Z,1.00
2023-11-15T14:04:11.103Z,1.30
2023-11-15T14:06:42.484Z,1.30
2023-11-15T14:09:15.265Z,1.40
2023-11-15T14:11:48.296Z,1.10
2023-11-15T14:14:20.356Z,1.30
2023-11-15T14:16:50.422Z,1.50
2023-11-15T14:19:21.929Z,1.70
2023-11-15T14:21:53.181Z,0.70
2023-11-15T14:24:23.029Z,1.20
2023-11-15T14:26:56.008Z,1.50
2023-11-15T14:29:26.415Z,1.20
2023-11-15T14:31:56.425Z,1.40
2023-11-15T14:34:31.381Z,1.00
2023-11-15T14:37:01.331Z,1.40
2023-11-15T14:39:32.984Z,1.30
2023-11-15T14:42:04.554Z,1.30
2023-11-15T14:44:36.667Z,1.60
2023-11-15T14:47:10.718Z,1.10
2023-11-15T14:49:42.893Z,1.90
2023-11-15T14:52:14.557Z,1.70
2023-11-15T14:54:47.231Z,1.70
2023-11-15T14:57:17.504Z,1.60
2023-11-15T14:59:48.553Z,2.10
2023-11-15T15:02:20.284Z,1.40
2023-11-15T15:04:50.816Z,1.00
2023-11-15T15:07:21.043Z,1.60
2023-11-15T15:09:53.086Z,1.70
2023-11-15T15:12:25.192Z,1.70
2023-11-15T15:14:55.164Z,1.40
2023-11-15T15:17:28.572Z,1.50
2023-11-15T15:19:58.576Z,1.80
2023-11-15T15:22:28.598Z,1.30
2023-11-15T15:24:58.437Z,1.50
2023-11-15T15:27:28.684Z,1.30
2023-11-15T15:30:01.690Z,1.20
2023-11-15T15:32:32.015Z,1.10
2023-11-15T15:35:04.788Z,1.40
2023-11-15T15:37:34.661Z,0.90
2023-11-15T15:40:09.277Z,1.30
2023-11-15T15:42:39.565Z,1.40
2023-11-15T15:45:18.473Z,1.20
2023-11-15T15:47:49.739Z,1.20
2023-11-15T15:50:19.823Z,1.30
2023-11-15T15:52:49.876Z,1.50
2023-11-15T15:55:22.822Z,1.20
2023-11-15T15:57:52.685Z,1.70
2023-11-15T16:00:23.903Z,1.90
2023-11-15T16:02:54.551Z,1.50
2023-11-15T16:05:24.469Z,1.70
2023-11-15T16:07:56.558Z,1.40
2023-11-15T16:10:27.808Z,1.70
2023-11-15T16:12:59.899Z,1.30
2023-11-15T16:15:29.786Z,1.50
2023-11-15T16:18:02.507Z,1.60
2023-11-15T16:20:32.392Z,1.70
2023-11-15T16:23:02.292Z,2.10
2023-11-15T16:25:33.585Z,1.60
2023-11-15T16:28:03.585Z,1.20
2023-11-15T16:30:33.460Z,1.40
2023-11-15T16:33:04.064Z,1.70
2023-11-15T16:35:34.526Z,2.50
2023-11-15T16:38:04.682Z,1.60
2023-11-15T16:40:34.660Z,2.00
2023-11-15T16:43:04.571Z,1.50
2023-11-15T16:45:37.448Z,1.20
2023-11-15T16:48:07.863Z,1.60
2023-11-15T16:50:39.562Z,1.50
2023-11-15T16:53:11.601Z,2.30
2023-11-15T16:55:45.672Z,1.90
2023-11-15T16:58:20.368Z,2.00
2023-11-15T17:00:53.131Z,1.70
2023-11-15T17:03:24.378Z,1.40
2023-11-15T17:05:55.717Z,1.50
2023-11-15T17:08:28.396Z,2.20
2023-11-15T17:10:59.292Z,1.70
2023-11-15T17:13:31.438Z,1.30
2023-11-15T17:16:02.402Z,1.50
2023-11-15T17:18:36.044Z,1.90
2023-11-15T17:21:07.283Z,2.20
2023-11-15T17:23:37.315Z,2.10
2023-11-15T17:26:14.014Z,1.40
2023-11-15T17:28:48.316Z,1.70
2023-11-15T17:31:26.016Z,1.90
2023-11-15T17:33:57.153Z,1.90
2023-11-15T17:36:29.529Z,2.30
2023-11-15T17:39:01.585Z,2.70
2023-11-15T17:41:31.621Z,2.70
2023-11-15T17:44:04.014Z,2.50
2023-11-15T17:46:35.556Z,2.50
2023-11-15T17:49:06.026Z,2.40
2023-11-15T17:51:35.728Z,2.20
2023-11-15T17:54:08.288Z,2.10
2023-11-15T17:56:40.813Z,2.30
2023-11-15T17:59:10.614Z,1.90
2023-11-15T18:01:40.489Z,2.50
2023-11-15T18:04:15.893Z,3.00
2023-11-15T18:06:46.206Z,2.10
2023-11-15T18:09:16.569Z,2.20
2023-11-15T18:11:49.293Z,2.90
2023-11-15T18:14:21.672Z,2.70
2023-11-15T18:16:51.453Z,2.50
2023-11-15T18:19:22.546Z,2.50
2023-11-15T18:21:54.724Z,3.40
2023-11-15T18:24:25.387Z,2.20
2023-11-15T18:26:55.286Z,2.40
2023-11-15T18:29:27.704Z,2.10
2023-11-15T18:31:59.689Z,2.70
2023-11-15T18:34:29.748Z,2.00
2023-11-15T18:37:02.075Z,4.00
2023-11-15T18:39:34.152Z,2.60
2023-11-15T18:42:04.858Z,4.00
2023-11-15T18:44:34.736Z,4.30
2023-11-15T18:47:04.681Z,3.90
2023-11-15T18:49:34.954Z,4.70
2023-11-15T18:52:09.042Z,4.40
2023-11-15T18:54:40.007Z,4.60
2023-11-15T18:57:13.187Z,3.40
2023-11-15T18:59:43.440Z,3.90
2023-11-15T19:02:13.328Z,4.00
2023-11-15T19:04:43.112Z,3.10
2023-11-15T19:07:16.114Z,3.00
2023-11-15T19:09:46.833Z,3.90
2023-11-15T19:12:16.889Z,3.50
2023-11-15T19:14:46.794Z,3.00
2023-11-15T19:17:17.850Z,3.50
2023-11-15T19:19:48.042Z,3.60
2023-11-15T19:22:20.140Z,2.90
2023-11-15T19:24:50.241Z,3.50
2023-11-15T19:27:20.137Z,3.30
2023-11-15T19:29:52.292Z,3.10
2023-11-15T19:32:22.303Z,3.10
2023-11-15T19:34:52.198Z,3.70
2023-11-15T19:37:24.386Z,3.10
2023-11-15T19:39:56.637Z,2.20
2023-11-15T19:42:26.440Z,2.20
2023-11-15T19:44:57.076Z,3.20
2023-11-15T19:47:28.111Z,2.40
2023-11-15T19:49:59.006Z,2.50
2023-11-15T19:52:30.833Z,2.30
2023-11-15T19:55:01.279Z,2.80
2023-11-15T19:57:31.119Z,2.60
2023-11-15T20:00:01.162Z,2.10
2023-11-15T20:02:34.750Z,2.70
2023-11-15T20:05:14.418Z,2.60
2023-11-15T20:07:46.915Z,2.70
2023-11-15T20:10:16.768Z,2.80
2023-11-15T20:12:47.861Z,2.90
2023-11-15T20:15:19.384Z,2.50
2023-11-15T20:17:49.333Z,3.40
2023-11-15T20:20:23.989Z,2.60
2023-11-15T20:22:55.703Z,3.80
2023-11-15T20:25:25.833Z,2.70
2023-11-15T20:27:55.718Z,2.80
2023-11-15T20:30:26.943Z,3.10
2023-11-15T20:33:02.229Z,2.90
2023-11-15T20:35:32.050Z,4.00
2023-11-15T20:38:01.914Z,2.90
2023-11-15T20:40:31.826Z,3.00
2023-11-15T20:43:01.703Z,2.70
2023-11-15T20:45:31.566Z,2.50
2023-11-15T20:48:06.261Z,2.60
2023-11-15T20:50:36.101Z,2.80
2023-11-15T20:53:10.713Z,3.40
2023-11-15T20:55:42.773Z,2.70
2023-11-15T20:58:13.726Z,3.40
2023-11-15T21:00:44.130Z,3.50
2023-11-15T21:03:14.238Z,3.50
2023-11-15T21:05:48.113Z,3.70
2023-11-15T21:08:18.522Z,3.00
2023-11-15T21:10:54.464Z,2.70
2023-11-15T21:13:24.375Z,3.20
2023-11-15T21:15:56.220Z,3.50
2023-11-15T21:18:27.193Z,3.00
2023-11-15T21:20:57.041Z,4.30
2023-11-15T21:23:27.248Z,3.10
2023-11-15T21:25:59.393Z,3.30
2023-11-15T21:28:29.315Z,2.40
2023-11-15T21:31:01.416Z,2.70
2023-11-15T21:33:31.490Z,3.20
2023-11-15T21:36:01.373Z,3.40
2023-11-15T21:38:31.259Z,2.70
2023-11-15T21:41:01.322Z,3.00
2023-11-15T21:43:31.164Z,2.50
2023-11-15T21:46:01.106Z,2.90
2023-11-15T21:48:34.385Z,2.90
2023-11-15T21:51:04.491Z,3.00
2023-11-15T21:53:36.207Z,3.30
2023-11-15T21:56:07.504Z,3.60
2023-11-15T21:58:39.728Z,3.00
2023-11-15T22:01:12.638Z,3.60
2023-11-15T22:03:45.916Z,3.60
2023-11-15T22:06:15.819Z,3.20
2023-11-15T22:08:48.066Z,2.90
2023-11-15T22:11:17.999Z,2.60
2023-11-15T22:13:50.246Z,4.00
2023-11-15T22:16:22.736Z,2.70
2023-11-15T22:18:52.611Z,3.50
2023-11-15T22:21:23.366Z,3.60
2023-11-15T22:23:53.188Z,3.00
2023-11-15T22:26:23.024Z,4.20
2023-11-15T22:28:53.010Z,3.90
2023-11-15T22:31:23.139Z,2.90
2023-11-15T22:33:54.912Z,2.30
2023-11-15T22:36:24.735Z,3.20
2023-11-15T22:38:57.366Z,2.90
2023-11-15T22:41:28.736Z,3.40
2023-11-15T22:43:59.472Z,3.20
2023-11-15T22:46:29.283Z,3.10
2023-11-15T22:48:59.113Z,3.60
2023-11-15T22:51:34.276Z,3.00
2023-11-15T22:54:05.390Z,3.00
2023-11-15T22:56:35.421Z,2.40
2023-11-15T22:59:08.585Z,3.00
2023-11-15T23:01:39.167Z,2.60
2023-11-15T23:04:15.942Z,3.20
2023-11-15T23:06:46.170Z,3.50
2023-11-15T23:09:16.129Z,2.80
2023-11-15T23:11:45.889Z,2.60
2023-11-15T23:14:15.842Z,2.70
2023-11-15T23:16:45.832Z,4.10
2023-11-15T23:19:17.813Z,3.30
2023-11-15T23:21:55.337Z,3.10
2023-11-15T23:24:31.630Z,3.00
2023-11-15T23:27:01.622Z,2.50
2023-11-15T23:29:32.405Z,2.90
2023-11-15T23:32:05.646Z,3.10
2023-11-15T23:34:38.028Z,2.50
2023-11-15T23:37:08.677Z,2.90
2023-11-15T23:39:38.539Z,2.80
2023-11-15T23:42:09.410Z,3.10
2023-11-15T23:44:40.137Z,3.60
2023-11-15T23:47:10.151Z,3.30
2023-11-15T23:49:42.226Z,2.90
2023-11-15T23:52:12.743Z,2.80
2023-11-15T23:54:44.802Z,2.80
2023-11-15T23:57:17.363Z,2.50
2023-11-15T23:59:47.659Z,3.00
